Pagrindinis puslapis
METAR-TAF:

METAR-TAF

Oro uostai :

Grosetas, Italija

platuma: 42-45N, ilguma: 011-04E, Aukštis: 5 m

Dabartinis oras

Ataskaita buvo paskelbta 56 minutes, ne 09:55 UTC
Vėjas 4 kt iš Rytų/Šiaurės Rytų
Temperatūra 23°C
Drėgmė 38%
Slėgis 1022 hPa
Matomumas 10 km arba daugiau
nėra debesų žemiau 1500 m ir nėra kamuolinių lietaus debesų

METAR: LIRS 210955Z 06004KT CAVOK 23/08 Q1022 RMK SCT SCT200 VIS MIN 9999 WIND THR03 06004KT WIND THR21 06002KT BLU

Laikas: 12:51 (10:51 UTC)

Prognozė

Ataskaita buvo paskelbta 2 valandos ir 51 minutes, ne 08:00 UTC
Prognozė galioja nuo 21 metu 09 UTC su 21 metu 18 UTC
Vėjas 8 kt iš Rytų/Šiaurės Rytų
Matomumas 10 km arba daugiau
nėra debesų žemiau 1500 m ir nėra kamuolinių lietaus debesų

TAF: LIRS 210800Z 2109/2118 06008KT CAVOK

Orai ataskaitas ir orų prognozės (METAR, TAF).

turimą stotys yra geltonos ir raudonos taškus žemėlapyje.

Perkelti pele per norėdami pamatyti stoties vardą.

Tada spustelėkite, norėdami matyti oro stebėjimo ir prognozės.

Norėdami pakeisti žemėlapį: spustelėkite ant žalios mygtukų su juodo kryžiaus žemyn,; žalią mygtuką su brūkšneliu, jei norite nutolinti; arba žalių rodyklių gretimoms žemėlapius.


METAR-TAF: